Parcialmente enevoado
Limpo, com algumas nuvens baixas
Nublado
Parcialmente enevoado
Nublado
Misto com aguaceiros
Muito nublado
(°C)
(°C)
NNO
NNO
NNO
NNO
NNO
NO
NNO
(km/h)
11-25
12-25
14-30
15-37
17-36
18-36
18-34
(mm)
0
0
0
0
0
0.1
0
(%)
23
14
14
8
0
25
8

Elevação do sol

/ 49.8°
sun-icon
UV 2
04:28
21:12
Lua cheia (176°)
21:44
03:50

METAR para 55.31°N 61.5°L (USCC)

Hora Condições Temperatura/
Ponto de condensação
Vento Visibilidade Tempo Nuvens Pressão Mudança Bruto
VFR 7°C / 0°C 320º variable 280º to 350º 6kt 9700m - Scattered Clouds 4000ft 1019 No Significant change. Runway 27: Wet or puddles, 51-100% contamination with <1mm, friction coefficient 0.50. USCC 230530Z 32003MPS 280V350 9999 SCT040 07/M00 Q1019 R27/290050 NOSIG RMK QFE744
VFR 6°C / 0°C 290º 6kt 9700m - Scattered Clouds 4000ft 1019 No Significant change. Runway 27: Wet or puddles, 51-100% contamination with <1mm, friction coefficient 0.50. USCC 230500Z 29003MPS 9999 SCT040 06/M00 Q1019 R27/290050 NOSIG RMK QFE744
VFR 5°C / 1°C 280º 6kt 9700m - Scattered Clouds 4000ft 1019 No Significant change. Runway 27: Wet or puddles, 51-100% contamination with <1mm, friction coefficient 0.50. USCC 230430Z 28003MPS 9999 SCT040CB 05/01 Q1019 R27/290050 NOSIG RMK QFE744
MVFR 6°C / 2°C 290º 6kt 9700m - Broken Clouds 3000ft 1019 Temporary: Visibility 2100. Light Showers Rain . Broken Clouds 1100ft. Cumulonimbus RMK QFE744 . Runway 27: Wet or puddles, 51-100% contamination with <1mm, friction coefficient 0.50. USCC 230400Z 29003MPS 9999 BKN030CB 06/02 Q1019 R27/290050 TEMPO 2100 -SHRA BKN011CB RMK QFE744
MVFR 5°C / 2°C 310º 6kt 9700m - Broken Clouds 3000ft 1019 Temporary: Visibility 2100. Light Showers Rain . Broken Clouds 1100ft. Cumulonimbus RMK QFE744 . Runway 27: Wet or puddles, 51-100% contamination with <1mm, friction coefficient 0.50. USCC 230330Z 31003MPS 9999 BKN030CB 05/02 Q1019 R27/290050 TEMPO 2100 -SHRA BKN011CB RMK QFE744
MVFR 5°C / 2°C 320º 6kt 9700m Light Showers Rain 3.00mm precipitation Broken Clouds 2600ft 1019 Temporary: Visibility 2100. Light Showers Rain . Broken Clouds 1100ft. Cumulonimbus RMK QFE744 . Runway 27: Wet or puddles, 51-100% contamination with <1mm, friction coefficient 0.50. USCC 230300Z 32003MPS 9999 -SHRA BKN026CB 05/02 Q1019 R27/290050 TEMPO 2100 -SHRA BKN011CB RMK QFE744
VFR 4°C / 2°C 320º 6kt 9700m - Broken Clouds 4000ft 1019 Temporary: Visibility 2100. Light Showers Rain . Broken Clouds 1100ft. Cumulonimbus RMK QFE744 . Runway 27: Wet or puddles, 51-100% contamination with <1mm, friction coefficient 0.50. USCC 230230Z 32003MPS 9999 BKN040CB 04/02 Q1019 R27/290050 TEMPO 2100 -SHRA BKN011CB RMK QFE744
MVFR 5°C / 2°C 310º 8kt 6000m Light Showers Rain 3.00mm precipitation Scattered Clouds 2000ft 1019 Temporary: Visibility 2100. Light Showers Rain . Broken Clouds 1100ft. Cumulonimbus RMK QFE744 . Runway 27: Wet or puddles, 51-100% contamination with <1mm, friction coefficient 0.50. USCC 230200Z 31004MPS 6000 -SHRA SCT020CB 05/02 Q1019 R27/290050 TEMPO 2100 -SHRA BKN011CB RMK QFE744
VFR 5°C / 1°C 310º 4kt 9700m Light Showers Rain 3.00mm precipitation Scattered Clouds 5000ft 1018 No Significant change USCC 230130Z 31002MPS 9999 -SHRA SCT050CB 05/01 Q1018 R27/000060 NOSIG RMK QFE744
VFR 5°C / 1°C 310º 4kt 9700m - Scattered Clouds 4600ft 1018 No Significant change USCC 230100Z 31002MPS 9999 SCT046CB 05/01 Q1018 R27/000060 NOSIG RMK QFE743
VFR 5°C / 1°C 290º 4kt 9700m - Scattered Clouds 4600ft 1018 No Significant change USCC 230030Z 29002MPS 9999 SCT046CB 05/01 Q1018 R27/000060 NOSIG RMK QFE743
VFR 4°C / 0°C 310º 2kt 9700m - Clouds and Visibility OK 1018 No Significant change USCC 230000Z 31001MPS CAVOK 04/00 Q1018 R27/000060 NOSIG RMK QFE743
VFR 5°C / 0°C 10º 2kt 9700m - Clouds and Visibility OK 1018 No Significant change USCC 222330Z 01001MPS CAVOK 05/00 Q1018 R27/000060 NOSIG RMK QFE743
VFR 6°C / 0°C 360º 4kt 9700m - Clouds and Visibility OK 1018 No Significant change USCC 222300Z 36002MPS CAVOK 06/M00 Q1018 R27/000060 NOSIG RMK QFE743
VFR 5°C / 0°C 340º 4kt 9700m - Clouds and Visibility OK 1018 No Significant change USCC 222230Z 34002MPS CAVOK 05/00 Q1018 R27/000060 NOSIG RMK QFE743
VFR 6°C / 0°C 20º 2kt 9700m - Scattered Clouds 4000ft 1018 No Significant change USCC 222200Z 02001MPS 9999 SCT040CB 06/M00 Q1018 R27/000060 NOSIG RMK QFE743
VFR 6°C / 0°C 340º 4kt 9700m - Scattered Clouds 4000ft 1018 No Significant change USCC 222130Z 34002MPS 9999 SCT040CB 06/M00 Q1018 R27/000060 NOSIG RMK QFE743
VFR 6°C / -1°C 10º 4kt 9700m - Scattered Clouds 4000ft 1018 No Significant change USCC 222100Z 01002MPS 9999 SCT040CB 06/M01 Q1018 R27/000060 NOSIG RMK QFE743
VFR 7°C / -1°C 30º 4kt 9700m - Scattered Clouds 4000ft 1018 No Significant change USCC 222030Z 03002MPS 9999 SCT040CB 07/M01 Q1018 R27/000060 NOSIG RMK QFE743
VFR 7°C / -2°C 30º 4kt 9700m - Scattered Clouds 4000ft 1018 No Significant change USCC 222000Z 03002MPS 9999 SCT040CB 07/M02 Q1018 R27/000060 NOSIG RMK QFE743
VFR 8°C / -2°C 30º 6kt 9700m - Scattered Clouds 4000ft 1018 No Significant change USCC 221930Z 03003MPS 9999 SCT040CB 08/M02 Q1018 R27/000060 NOSIG RMK QFE743
VFR 7°C / -1°C 350º 6kt 9700m - Scattered Clouds 4000ft 1018 No Significant change. Runway 27: Wet or puddles, 51-100% contamination with <1mm, friction coefficient 0.50. USCC 221900Z 35003MPS 9999 SCT040CB 07/M01 Q1018 R27/290050 NOSIG RMK QFE743
VFR 8°C / -1°C 30º 6kt 9700m - Scattered Clouds 4000ft 1017 No Significant change. Runway 27: Wet or puddles, 51-100% contamination with <1mm, friction coefficient 0.50. USCC 221830Z 03003MPS 9999 SCT040CB 08/M01 Q1017 R27/290050 NOSIG RMK QFE743
VFR 8°C / 2°C 20º 6kt 9700m - Scattered Clouds 4000ft 1017 No Significant change. Runway 27: Wet or puddles, 51-100% contamination with <1mm, friction coefficient 0.50. USCC 221800Z 02003MPS 9999 SCT040CB 08/02 Q1017 R27/290050 NOSIG RMK QFE743

VFR

7°C / 0°C

[Mais]
Vento 320º variable 280º to 350º 6kt
Visibilidade 9700m
Tempo -
Nuvens Scattered Clouds 4000ft
Pressão 1019
Mudança No Significant change. Runway 27: Wet or puddles, 51-100% contamination with <1mm, friction coefficient 0.50.
Bruto USCC 230530Z 32003MPS 280V350 9999 SCT040 07/M00 Q1019 R27/290050 NOSIG RMK QFE744

VFR

6°C / 0°C

[Mais]
Vento 290º 6kt
Visibilidade 9700m
Tempo -
Nuvens Scattered Clouds 4000ft
Pressão 1019
Mudança No Significant change. Runway 27: Wet or puddles, 51-100% contamination with <1mm, friction coefficient 0.50.
Bruto USCC 230500Z 29003MPS 9999 SCT040 06/M00 Q1019 R27/290050 NOSIG RMK QFE744

VFR

5°C / 1°C

[Mais]
Vento 280º 6kt
Visibilidade 9700m
Tempo -
Nuvens Scattered Clouds 4000ft
Pressão 1019
Mudança No Significant change. Runway 27: Wet or puddles, 51-100% contamination with <1mm, friction coefficient 0.50.
Bruto USCC 230430Z 28003MPS 9999 SCT040CB 05/01 Q1019 R27/290050 NOSIG RMK QFE744

MVFR

6°C / 2°C

[Mais]
Vento 290º 6kt
Visibilidade 9700m
Tempo -
Nuvens Broken Clouds 3000ft
Pressão 1019
Mudança Temporary: Visibility 2100. Light Showers Rain . Broken Clouds 1100ft. Cumulonimbus RMK QFE744 . Runway 27: Wet or puddles, 51-100% contamination with <1mm, friction coefficient 0.50.
Bruto USCC 230400Z 29003MPS 9999 BKN030CB 06/02 Q1019 R27/290050 TEMPO 2100 -SHRA BKN011CB RMK QFE744

MVFR

5°C / 2°C

[Mais]
Vento 310º 6kt
Visibilidade 9700m
Tempo -
Nuvens Broken Clouds 3000ft
Pressão 1019
Mudança Temporary: Visibility 2100. Light Showers Rain . Broken Clouds 1100ft. Cumulonimbus RMK QFE744 . Runway 27: Wet or puddles, 51-100% contamination with <1mm, friction coefficient 0.50.
Bruto USCC 230330Z 31003MPS 9999 BKN030CB 05/02 Q1019 R27/290050 TEMPO 2100 -SHRA BKN011CB RMK QFE744

MVFR

5°C / 2°C

[Mais]
Vento 320º 6kt
Visibilidade 9700m
Tempo Light Showers Rain 3.00mm precipitation
Nuvens Broken Clouds 2600ft
Pressão 1019
Mudança Temporary: Visibility 2100. Light Showers Rain . Broken Clouds 1100ft. Cumulonimbus RMK QFE744 . Runway 27: Wet or puddles, 51-100% contamination with <1mm, friction coefficient 0.50.
Bruto USCC 230300Z 32003MPS 9999 -SHRA BKN026CB 05/02 Q1019 R27/290050 TEMPO 2100 -SHRA BKN011CB RMK QFE744

VFR

4°C / 2°C

[Mais]
Vento 320º 6kt
Visibilidade 9700m
Tempo -
Nuvens Broken Clouds 4000ft
Pressão 1019
Mudança Temporary: Visibility 2100. Light Showers Rain . Broken Clouds 1100ft. Cumulonimbus RMK QFE744 . Runway 27: Wet or puddles, 51-100% contamination with <1mm, friction coefficient 0.50.
Bruto USCC 230230Z 32003MPS 9999 BKN040CB 04/02 Q1019 R27/290050 TEMPO 2100 -SHRA BKN011CB RMK QFE744

MVFR

5°C / 2°C

[Mais]
Vento 310º 8kt
Visibilidade 6000m
Tempo Light Showers Rain 3.00mm precipitation
Nuvens Scattered Clouds 2000ft
Pressão 1019
Mudança Temporary: Visibility 2100. Light Showers Rain . Broken Clouds 1100ft. Cumulonimbus RMK QFE744 . Runway 27: Wet or puddles, 51-100% contamination with <1mm, friction coefficient 0.50.
Bruto USCC 230200Z 31004MPS 6000 -SHRA SCT020CB 05/02 Q1019 R27/290050 TEMPO 2100 -SHRA BKN011CB RMK QFE744

VFR

5°C / 1°C

[Mais]
Vento 310º 4kt
Visibilidade 9700m
Tempo Light Showers Rain 3.00mm precipitation
Nuvens Scattered Clouds 5000ft
Pressão 1018
Mudança No Significant change
Bruto USCC 230130Z 31002MPS 9999 -SHRA SCT050CB 05/01 Q1018 R27/000060 NOSIG RMK QFE744

VFR

5°C / 1°C

[Mais]
Vento 310º 4kt
Visibilidade 9700m
Tempo -
Nuvens Scattered Clouds 4600ft
Pressão 1018
Mudança No Significant change
Bruto USCC 230100Z 31002MPS 9999 SCT046CB 05/01 Q1018 R27/000060 NOSIG RMK QFE743

VFR

5°C / 1°C

[Mais]
Vento 290º 4kt
Visibilidade 9700m
Tempo -
Nuvens Scattered Clouds 4600ft
Pressão 1018
Mudança No Significant change
Bruto USCC 230030Z 29002MPS 9999 SCT046CB 05/01 Q1018 R27/000060 NOSIG RMK QFE743

VFR

4°C / 0°C

[Mais]
Vento 310º 2kt
Visibilidade 9700m
Tempo -
Nuvens Clouds and Visibility OK
Pressão 1018
Mudança No Significant change
Bruto USCC 230000Z 31001MPS CAVOK 04/00 Q1018 R27/000060 NOSIG RMK QFE743

VFR

5°C / 0°C

[Mais]
Vento 10º 2kt
Visibilidade 9700m
Tempo -
Nuvens Clouds and Visibility OK
Pressão 1018
Mudança No Significant change
Bruto USCC 222330Z 01001MPS CAVOK 05/00 Q1018 R27/000060 NOSIG RMK QFE743

VFR

6°C / 0°C

[Mais]
Vento 360º 4kt
Visibilidade 9700m
Tempo -
Nuvens Clouds and Visibility OK
Pressão 1018
Mudança No Significant change
Bruto USCC 222300Z 36002MPS CAVOK 06/M00 Q1018 R27/000060 NOSIG RMK QFE743

VFR

5°C / 0°C

[Mais]
Vento 340º 4kt
Visibilidade 9700m
Tempo -
Nuvens Clouds and Visibility OK
Pressão 1018
Mudança No Significant change
Bruto USCC 222230Z 34002MPS CAVOK 05/00 Q1018 R27/000060 NOSIG RMK QFE743

VFR

6°C / 0°C

[Mais]
Vento 20º 2kt
Visibilidade 9700m
Tempo -
Nuvens Scattered Clouds 4000ft
Pressão 1018
Mudança No Significant change
Bruto USCC 222200Z 02001MPS 9999 SCT040CB 06/M00 Q1018 R27/000060 NOSIG RMK QFE743

VFR

6°C / 0°C

[Mais]
Vento 340º 4kt
Visibilidade 9700m
Tempo -
Nuvens Scattered Clouds 4000ft
Pressão 1018
Mudança No Significant change
Bruto USCC 222130Z 34002MPS 9999 SCT040CB 06/M00 Q1018 R27/000060 NOSIG RMK QFE743

VFR

6°C / -1°C

[Mais]
Vento 10º 4kt
Visibilidade 9700m
Tempo -
Nuvens Scattered Clouds 4000ft
Pressão 1018
Mudança No Significant change
Bruto USCC 222100Z 01002MPS 9999 SCT040CB 06/M01 Q1018 R27/000060 NOSIG RMK QFE743

VFR

7°C / -1°C

[Mais]
Vento 30º 4kt
Visibilidade 9700m
Tempo -
Nuvens Scattered Clouds 4000ft
Pressão 1018
Mudança No Significant change
Bruto USCC 222030Z 03002MPS 9999 SCT040CB 07/M01 Q1018 R27/000060 NOSIG RMK QFE743

VFR

7°C / -2°C

[Mais]
Vento 30º 4kt
Visibilidade 9700m
Tempo -
Nuvens Scattered Clouds 4000ft
Pressão 1018
Mudança No Significant change
Bruto USCC 222000Z 03002MPS 9999 SCT040CB 07/M02 Q1018 R27/000060 NOSIG RMK QFE743

VFR

8°C / -2°C

[Mais]
Vento 30º 6kt
Visibilidade 9700m
Tempo -
Nuvens Scattered Clouds 4000ft
Pressão 1018
Mudança No Significant change
Bruto USCC 221930Z 03003MPS 9999 SCT040CB 08/M02 Q1018 R27/000060 NOSIG RMK QFE743

VFR

7°C / -1°C

[Mais]
Vento 350º 6kt
Visibilidade 9700m
Tempo -
Nuvens Scattered Clouds 4000ft
Pressão 1018
Mudança No Significant change. Runway 27: Wet or puddles, 51-100% contamination with <1mm, friction coefficient 0.50.
Bruto USCC 221900Z 35003MPS 9999 SCT040CB 07/M01 Q1018 R27/290050 NOSIG RMK QFE743

VFR

8°C / -1°C

[Mais]
Vento 30º 6kt
Visibilidade 9700m
Tempo -
Nuvens Scattered Clouds 4000ft
Pressão 1017
Mudança No Significant change. Runway 27: Wet or puddles, 51-100% contamination with <1mm, friction coefficient 0.50.
Bruto USCC 221830Z 03003MPS 9999 SCT040CB 08/M01 Q1017 R27/290050 NOSIG RMK QFE743

VFR

8°C / 2°C

[Mais]
Vento 20º 6kt
Visibilidade 9700m
Tempo -
Nuvens Scattered Clouds 4000ft
Pressão 1017
Mudança No Significant change. Runway 27: Wet or puddles, 51-100% contamination with <1mm, friction coefficient 0.50.
Bruto USCC 221800Z 02003MPS 9999 SCT040CB 08/02 Q1017 R27/290050 NOSIG RMK QFE743

TAF para 55.31°N 61.5°L (USCC)

From till


From till Wind 320º 6kt. Gust 16kt. Visibility 9700m. Broken Clouds 4000ft.
Temporarly from till Wind 20º 16kt. Gust 25kt. Light Showers Rain . Broken Clouds 3000ft.

Bruto: TAF USCC 230453Z 2306/2406 32003G08MPS 9999 BKN040CB TEMPO 2306/2312 02008G13MPS -SHRA BKN030CB

Radar para 55.31°N 61.5°L

Chuvisco
Leve
Moderado
Forte
Muito forte
Granizo

O marcador do lugar é colocado em 55.31°N 61.5°L. As cruzes de cor laranja indicam relâmpagos. Dados fornecidos por nowcast.de (disponível nos EUA, Europa e Austrália). A queda de neve suave ou ligeira pode ser invisível para o radar. A intensidade da precipitação é codificada por cores, variando de turquesa a vermelha.

Imagens atuais de satélite e precipitação para 55.31°N 61.5°L

O marcador de lugar é colocado em 55.31°N 61.5°L. [Mais]

A imagem de satélite em tempo real combina luz visível durante o dia com radiação infravermelha durante a noite. À noite, a imagem não é escura, pois a radiação infravermelha pode detectar diferenças de temperatura. Infelizmente, nuvens baixas e neblina são difíceis de distinguir das temperaturas do solo e, portanto, podem ser quase invisíveis durante a noite. As imagens de satélite Meteosat para a Europa são atualizadas em tempo real a cada 5 minutos. GOES-16/GOES-17 ( América do Norte e do Sul) e Himawari (Ásia) são atualizadas a cada 10 minutos.

A precipitação é estimada a partir de radares e satélites. As estimativas de precipitação a partir de satélites são menos precisas à noite do que durante o dia.

© 2024 meteoblue, NOAA Satellites GOES-16 and EUMETSAT. Dados de relâmpagos fornecidos por nowcast.

Voltar ao início
×
Olá,
parece que você está usando um bloqueador de anúncios.

A publicidade é essencial para manter o nosso site gratuito com detalhes e precisão únicos.

Por favor approve www.meteoblue.com no seu bloqueador de anúncios ou considere a compra de um dos nossos produtos:

Já tem uma assinatura?
Então por favor login.